createdAt,value
2023-01-13T00:01:33.860Z,8.92
2023-01-13T00:04:00.384Z,8.78
2023-01-13T00:06:26.755Z,8.82
2023-01-13T00:08:53.144Z,8.76
2023-01-13T00:11:19.518Z,8.78
2023-01-13T00:13:46.079Z,8.79
2023-01-13T00:16:12.514Z,8.51
2023-01-13T00:18:42.733Z,8.52
2023-01-13T00:21:09.105Z,8.65
2023-01-13T00:23:35.806Z,8.54
2023-01-13T00:26:02.380Z,8.55
2023-01-13T00:28:28.790Z,8.62
2023-01-13T00:30:55.255Z,8.56
2023-01-13T00:33:21.911Z,8.55
2023-01-13T00:35:48.429Z,8.55
2023-01-13T00:38:16.887Z,8.46
2023-01-13T00:40:43.279Z,8.49
2023-01-13T00:43:09.654Z,8.44
2023-01-13T00:45:36.039Z,8.39
2023-01-13T00:48:02.521Z,8.44
2023-01-13T00:50:29.861Z,8.38
2023-01-13T00:52:56.223Z,8.41
2023-01-13T00:55:22.637Z,8.45
2023-01-13T00:57:49.484Z,8.52
2023-01-13T01:00:16.357Z,8.56
2023-01-13T01:02:44.014Z,8.65
2023-01-13T01:05:10.463Z,8.67
2023-01-13T01:07:36.868Z,8.61
2023-01-13T01:10:03.542Z,8.74
2023-01-13T01:12:30.084Z,8.69
2023-01-13T01:14:56.457Z,8.69
2023-01-13T01:17:22.823Z,8.73
2023-01-13T01:19:49.182Z,8.76
2023-01-13T01:22:15.550Z,8.68
2023-01-13T01:24:41.976Z,8.79
2023-01-13T01:27:08.331Z,8.79
2023-01-13T01:29:35.103Z,8.76
2023-01-13T01:32:02.532Z,8.75
2023-01-13T01:34:29.111Z,8.67
2023-01-13T01:36:56.787Z,8.64
2023-01-13T01:39:23.167Z,8.64
2023-01-13T01:41:49.551Z,8.75
2023-01-13T01:44:16.255Z,8.75
2023-01-13T01:46:42.750Z,8.71
2023-01-13T01:49:09.182Z,8.71
2023-01-13T01:51:35.726Z,8.67
2023-01-13T01:54:04.411Z,8.83
2023-01-13T01:56:30.793Z,8.85
2023-01-13T01:58:57.359Z,8.82
2023-01-13T02:01:23.846Z,8.83
2023-01-13T02:03:50.285Z,8.92
2023-01-13T02:06:16.673Z,8.94
2023-01-13T02:08:43.037Z,9.05
2023-01-13T02:11:09.429Z,9.15
2023-01-13T02:13:35.811Z,9.23
2023-01-13T02:16:02.245Z,9.22
2023-01-13T02:18:31.242Z,9.22
2023-01-13T02:20:59.148Z,9.17
2023-01-13T02:23:25.524Z,9.24
2023-01-13T02:25:51.880Z,9.23
2023-01-13T02:28:18.453Z,9.29
2023-01-13T02:30:44.964Z,9.22
2023-01-13T02:33:13.648Z,9.25
2023-01-13T02:35:41.783Z,9.31
2023-01-13T02:38:08.152Z,9.25
2023-01-13T02:40:34.530Z,9.26
2023-01-13T02:43:00.879Z,9.22
2023-01-13T02:45:27.276Z,9.28
2023-01-13T02:47:53.874Z,9.36
2023-01-13T02:50:20.245Z,9.31
2023-01-13T02:52:46.607Z,9.36
2023-01-13T02:55:15.040Z,9.34
2023-01-13T02:57:41.405Z,9.31
2023-01-13T03:00:07.733Z,9.35
2023-01-13T03:02:34.120Z,9.34
2023-01-13T03:05:02.613Z,9.25
2023-01-13T03:07:28.997Z,9.15
2023-01-13T03:09:55.380Z,9.27
2023-01-13T03:12:21.762Z,9.25
2023-01-13T03:14:48.117Z,9.23
2023-01-13T03:17:14.438Z,9.11
2023-01-13T03:19:40.778Z,8.98
2023-01-13T03:22:08.113Z,8.70
2023-01-13T03:24:34.662Z,8.45
2023-01-13T03:27:01.050Z,8.24
2023-01-13T03:29:27.384Z,8.23
2023-01-13T03:31:53.725Z,8.25
2023-01-13T03:34:20.099Z,8.31
2023-01-13T03:36:46.476Z,8.37
2023-01-13T03:39:12.871Z,8.42
2023-01-13T03:41:39.221Z,8.40
2023-01-13T03:44:05.600Z,8.39
2023-01-13T03:46:32.991Z,8.38
2023-01-13T03:48:59.346Z,8.46
2023-01-13T03:51:28.741Z,8.42
2023-01-13T03:53:55.334Z,8.40
2023-01-13T03:56:21.727Z,8.41
2023-01-13T03:58:48.123Z,8.36
2023-01-13T04:01:14.791Z,8.44
2023-01-13T04:03:41.490Z,8.41
2023-01-13T04:06:07.844Z,8.40
2023-01-13T04:08:36.553Z,8.39
2023-01-13T04:11:02.931Z,8.38
2023-01-13T04:13:29.342Z,8.40
2023-01-13T04:15:56.764Z,8.48
2023-01-13T04:18:23.127Z,8.52
2023-01-13T04:20:49.508Z,8.50
2023-01-13T04:23:15.900Z,8.60
2023-01-13T04:25:49.460Z,8.50
2023-01-13T04:28:15.790Z,8.40
2023-01-13T04:30:42.209Z,8.39
2023-01-13T04:33:08.616Z,8.37
2023-01-13T04:35:35.055Z,8.22
2023-01-13T04:38:01.462Z,8.16
2023-01-13T04:40:27.924Z,8.09
2023-01-13T04:42:54.313Z,8.18
2023-01-13T04:45:20.694Z,8.09
2023-01-13T04:47:47.066Z,8.18
2023-01-13T04:50:13.435Z,8.16
2023-01-13T04:52:39.769Z,7.99
2023-01-13T04:55:06.128Z,8.00
2023-01-13T04:57:32.516Z,7.91
2023-01-13T04:59:58.864Z,8.06
2023-01-13T05:02:27.328Z,8.10
2023-01-13T05:04:54.043Z,8.04
2023-01-13T05:07:20.471Z,8.00
2023-01-13T05:09:46.798Z,8.08
2023-01-13T05:12:14.241Z,8.10
2023-01-13T05:14:40.565Z,8.09
2023-01-13T05:17:07.005Z,8.10
2023-01-13T05:19:33.350Z,8.04
2023-01-13T05:21:59.738Z,8.03
2023-01-13T05:24:26.124Z,8.04
2023-01-13T05:26:52.483Z,8.15
2023-01-13T05:29:18.979Z,8.07
2023-01-13T05:31:45.375Z,8.07
2023-01-13T05:34:11.952Z,8.12
2023-01-13T05:36:38.289Z,8.19
2023-01-13T05:39:04.647Z,8.00
2023-01-13T05:41:31.133Z,7.93
2023-01-13T05:44:05.311Z,8.07
2023-01-13T05:46:31.923Z,8.10
2023-01-13T05:48:58.325Z,8.17
2023-01-13T05:51:24.689Z,8.18
2023-01-13T05:53:51.401Z,7.99
2023-01-13T05:56:17.740Z,7.95
2023-01-13T05:58:44.068Z,7.88
2023-01-13T06:01:10.507Z,7.86
2023-01-13T06:03:37.500Z,7.86
2023-01-13T06:06:04.045Z,7.84
2023-01-13T06:08:33.830Z,7.90
2023-01-13T06:11:00.225Z,7.93
2023-01-13T06:13:26.609Z,8.02
2023-01-13T06:15:55.386Z,7.97
2023-01-13T06:18:21.782Z,8.04
2023-01-13T06:20:50.521Z,8.01
2023-01-13T06:23:16.891Z,7.91
2023-01-13T06:25:43.262Z,7.71
2023-01-13T06:28:09.637Z,7.57
2023-01-13T06:30:36.346Z,7.52
2023-01-13T06:33:02.686Z,7.45
2023-01-13T06:35:29.074Z,7.40
2023-01-13T06:37:55.760Z,7.54
2023-01-13T06:40:22.490Z,7.55
2023-01-13T06:42:48.862Z,7.56
2023-01-13T06:45:15.236Z,7.67
2023-01-13T06:47:41.627Z,7.75
2023-01-13T06:50:08.004Z,7.81
2023-01-13T06:52:34.345Z,7.69
2023-01-13T06:55:00.997Z,7.59
2023-01-13T06:57:27.399Z,7.63
2023-01-13T06:59:53.880Z,7.74
2023-01-13T07:02:21.245Z,7.68
2023-01-13T07:04:48.004Z,7.35
2023-01-13T07:07:14.742Z,7.23
2023-01-13T07:09:42.127Z,7.03
2023-01-13T07:12:08.627Z,6.98
2023-01-13T07:14:34.980Z,6.94
2023-01-13T07:17:01.472Z,7.13
2023-01-13T07:19:27.962Z,7.03
2023-01-13T07:21:54.367Z,6.96
2023-01-13T07:24:20.786Z,6.99
2023-01-13T07:26:47.151Z,7.03
2023-01-13T07:29:13.911Z,7.05
2023-01-13T07:31:40.301Z,7.08
2023-01-13T07:34:06.668Z,6.96
2023-01-13T07:36:33.032Z,7.10
2023-01-13T07:39:00.457Z,7.27
2023-01-13T07:41:26.827Z,7.33
2023-01-13T07:43:53.220Z,7.43
2023-01-13T07:46:19.627Z,7.53
2023-01-13T07:48:45.996Z,7.65
2023-01-13T07:51:12.816Z,7.61
2023-01-13T07:53:39.366Z,7.60
2023-01-13T07:56:05.742Z,7.53
2023-01-13T07:58:32.123Z,7.52
2023-01-13T08:01:06.291Z,7.51
2023-01-13T08:03:32.673Z,7.48
2023-01-13T08:06:01.152Z,7.50
2023-01-13T08:08:27.491Z,7.34
2023-01-13T08:10:53.982Z,7.38
2023-01-13T08:13:20.429Z,7.36
2023-01-13T08:15:47.301Z,7.39
2023-01-13T08:18:15.791Z,7.32
2023-01-13T08:20:43.146Z,7.45
2023-01-13T08:23:09.492Z,7.53
2023-01-13T08:25:35.858Z,7.70
2023-01-13T08:28:05.021Z,7.64
2023-01-13T08:30:32.450Z,7.86
2023-01-13T08:32:59.913Z,8.05
2023-01-13T08:35:26.283Z,7.98
2023-01-13T08:37:55.756Z,8.04
2023-01-13T08:40:24.909Z,8.04
2023-01-13T08:42:56.199Z,7.97
2023-01-13T08:45:22.583Z,7.94
2023-01-13T08:47:48.928Z,7.79
2023-01-13T10:08:26.198Z,9.25
2023-01-13T10:11:31.601Z,9.26
2023-01-13T10:13:48.601Z,9.20
2023-01-13T10:24:27.797Z,9.48
2023-01-13T10:27:01.653Z,9.61
2023-01-13T10:29:28.035Z,9.66
2023-01-13T10:31:55.413Z,9.67
2023-01-13T10:34:21.797Z,9.70
2023-01-13T10:36:48.532Z,9.87
2023-01-13T10:39:14.936Z,9.80
2023-01-13T10:41:41.511Z,9.85
2023-01-13T10:44:10.403Z,9.82
2023-01-13T10:46:38.805Z,9.77
2023-01-13T10:49:05.421Z,9.62
2023-01-13T10:51:34.166Z,9.31
2023-01-13T10:54:00.545Z,9.47
2023-01-13T10:56:26.933Z,9.41
2023-01-13T10:58:53.621Z,9.42
2023-01-13T11:01:21.122Z,9.41
2023-01-13T11:03:47.529Z,9.66
2023-01-13T11:06:14.018Z,9.77
2023-01-13T11:08:40.706Z,9.68
2023-01-13T11:11:07.041Z,9.77
2023-01-13T11:13:37.888Z,9.80
2023-01-13T11:16:04.373Z,9.67
2023-01-13T11:18:30.808Z,9.54
2023-01-13T11:20:58.210Z,9.64
2023-01-13T11:23:24.845Z,9.87
2023-01-13T11:25:52.187Z,10.02
2023-01-13T11:28:19.581Z,10.04
2023-01-13T11:30:46.098Z,10.20
2023-01-13T11:33:12.452Z,10.27
2023-01-13T11:35:38.843Z,10.25
2023-01-13T11:38:06.674Z,10.31
2023-01-13T11:40:33.030Z,10.27
2023-01-13T11:42:59.969Z,10.31
2023-01-13T11:48:09.089Z,10.16
2023-01-13T11:50:35.535Z,10.18
2023-01-13T11:53:04.896Z,10.12
2023-01-13T11:55:31.249Z,10.19
2023-01-13T11:58:00.163Z,9.93
2023-01-13T12:00:26.559Z,10.01
2023-01-13T12:02:52.940Z,10.05
2023-01-13T12:05:21.809Z,9.99
2023-01-13T12:07:48.212Z,10.14
2023-01-13T12:10:18.044Z,10.11
2023-01-13T12:12:44.443Z,10.04
2023-01-13T12:15:13.172Z,10.15
2023-01-13T12:17:40.063Z,10.14
2023-01-13T12:20:06.820Z,10.24
2023-01-13T12:22:35.924Z,10.44
2023-01-13T12:25:03.144Z,10.14
2023-01-13T12:27:29.757Z,10.38
2023-01-13T12:29:56.529Z,10.21
2023-01-13T12:32:22.945Z,10.11
2023-01-13T12:34:50.980Z,9.93
2023-01-13T12:37:17.912Z,9.76
2023-01-13T12:39:45.921Z,9.72
2023-01-13T12:42:15.092Z,9.80
2023-01-13T12:44:41.438Z,10.07
2023-01-13T12:47:07.806Z,9.89
2023-01-13T12:49:35.108Z,10.14
2023-01-13T12:52:01.492Z,10.24
2023-01-13T12:54:27.869Z,10.18
2023-01-13T12:56:54.506Z,10.02
2023-01-13T12:59:21.873Z,10.11
2023-01-13T13:01:49.365Z,10.13
2023-01-13T13:04:15.851Z,10.34
2023-01-13T13:06:45.262Z,10.49
2023-01-13T13:09:12.407Z,10.35
2023-01-13T13:11:39.854Z,10.41
2023-01-13T13:14:06.753Z,10.33
2023-01-13T13:16:33.652Z,10.18
2023-01-13T13:19:02.916Z,10.42
2023-01-13T13:21:32.354Z,10.37
2023-01-13T13:24:00.835Z,10.28
2023-01-13T13:26:28.191Z,10.60
2023-01-13T13:28:54.575Z,10.71
2023-01-13T13:31:21.002Z,10.30
2023-01-13T13:33:49.935Z,10.45
2023-01-13T13:36:17.575Z,10.41
2023-01-13T13:38:43.934Z,10.28
2023-01-13T13:41:10.434Z,10.09
2023-01-13T13:43:37.820Z,10.19
2023-01-13T13:46:06.582Z,10.18
2023-01-13T13:48:33.025Z,10.18
2023-01-13T13:50:59.425Z,10.23
2023-01-13T13:53:27.896Z,9.82
2023-01-13T13:55:54.274Z,9.76
2023-01-13T13:58:20.624Z,9.84
2023-01-13T14:00:47.000Z,10.09
2023-01-13T14:03:13.594Z,10.01
2023-01-13T14:05:39.940Z,9.85
2023-01-13T14:08:07.508Z,10.03
2023-01-13T14:10:33.894Z,9.90
2023-01-13T14:13:00.932Z,9.70
2023-01-13T14:15:27.337Z,9.65
2023-01-13T14:17:53.743Z,9.84
2023-01-13T14:20:22.390Z,9.88
2023-01-13T14:22:51.904Z,10.13
2023-01-13T14:25:18.298Z,10.02
2023-01-13T14:27:44.892Z,10.08
2023-01-13T14:30:13.328Z,10.04
2023-01-13T14:32:39.672Z,10.20
2023-01-13T14:35:06.183Z,10.14
2023-01-13T14:37:32.536Z,10.07
2023-01-13T14:40:01.284Z,9.85
2023-01-13T14:42:28.845Z,9.99
2023-01-13T14:44:56.315Z,10.21
2023-01-13T14:47:22.987Z,10.17
2023-01-13T14:49:49.322Z,10.09
2023-01-13T14:52:15.738Z,10.15
2023-01-13T14:54:42.227Z,10.10
2023-01-13T14:57:09.017Z,10.08
2023-01-13T14:59:35.387Z,10.00
2023-01-13T15:02:01.776Z,10.03
2023-01-13T15:04:28.171Z,9.70
2023-01-13T15:06:54.948Z,9.70
2023-01-13T15:09:21.362Z,9.64
2023-01-13T15:11:50.284Z,9.49
2023-01-13T15:14:18.761Z,9.48
2023-01-13T15:16:49.941Z,9.47
2023-01-13T15:19:16.807Z,9.36
2023-01-13T15:21:45.469Z,9.28
2023-01-13T15:24:12.832Z,9.19
2023-01-13T15:26:39.223Z,9.10
2023-01-13T15:29:07.922Z,9.00
2023-01-13T15:31:35.342Z,8.95
2023-01-13T15:34:01.710Z,8.92
2023-01-13T15:36:28.051Z,8.92
2023-01-13T15:38:54.418Z,8.99
2023-01-13T15:41:21.853Z,8.98
2023-01-13T15:43:48.226Z,9.00
2023-01-13T15:46:14.633Z,9.02
2023-01-13T15:48:41.086Z,8.86
2023-01-13T15:51:08.589Z,8.86
2023-01-13T15:53:35.120Z,8.74
2023-01-13T15:56:01.499Z,8.74
2023-01-13T15:58:30.829Z,8.71
2023-01-13T16:00:57.230Z,8.62
2023-01-13T16:03:23.633Z,8.44
2023-01-13T16:05:50.269Z,8.35
2023-01-13T16:08:22.345Z,8.26
2023-01-13T16:10:49.154Z,8.21
2023-01-13T16:13:15.516Z,8.14
2023-01-13T16:15:43.297Z,8.09
2023-01-13T16:18:09.678Z,8.09
2023-01-13T16:20:36.067Z,8.14
2023-01-13T16:23:03.867Z,8.18
2023-01-13T16:25:31.269Z,8.10
2023-01-13T16:27:57.617Z,8.04
2023-01-13T16:30:24.860Z,8.06
2023-01-13T16:32:51.232Z,7.99
2023-01-13T16:35:19.926Z,8.09
2023-01-13T16:37:46.261Z,8.06
2023-01-13T16:40:13.672Z,8.15
2023-01-13T16:42:40.037Z,8.05
2023-01-13T16:45:07.736Z,8.15
2023-01-13T16:47:34.636Z,8.04
2023-01-13T16:50:04.248Z,8.06
2023-01-13T16:52:35.388Z,8.11
2023-01-13T16:55:01.784Z,8.12
2023-01-13T16:57:29.193Z,8.08
2023-01-13T16:59:56.551Z,8.13
2023-01-13T17:02:23.927Z,8.16
2023-01-13T17:04:50.300Z,8.04
2023-01-13T17:07:16.752Z,8.09
2023-01-13T17:09:43.197Z,8.11
2023-01-13T17:12:09.546Z,8.18
2023-01-13T17:14:35.876Z,8.24
2023-01-13T17:17:03.230Z,8.28
2023-01-13T17:19:31.636Z,8.23
2023-01-13T17:21:58.102Z,8.13
2023-01-13T17:24:25.609Z,8.03
2023-01-13T17:26:51.962Z,8.05
2023-01-13T17:29:18.423Z,7.67
2023-01-13T17:31:45.069Z,7.55
2023-01-13T17:34:11.679Z,7.46
2023-01-13T17:36:38.304Z,7.44
2023-01-13T17:39:04.959Z,7.41
2023-01-13T17:41:32.520Z,7.43
2023-01-13T17:43:59.958Z,7.44
2023-01-13T17:46:27.391Z,7.39
2023-01-13T17:48:53.822Z,7.36
2023-01-13T17:51:21.964Z,7.38
2023-01-13T17:53:48.645Z,7.46
2023-01-13T17:56:19.519Z,7.49
2023-01-13T17:58:45.904Z,7.43
2023-01-13T18:01:13.023Z,7.43
2023-01-13T18:03:40.402Z,7.50
2023-01-13T18:06:07.791Z,7.51
2023-01-13T18:08:34.486Z,7.41
2023-01-13T18:11:00.912Z,7.51
2023-01-13T18:13:30.310Z,7.57
2023-01-13T18:15:56.967Z,7.54
2023-01-13T18:18:30.675Z,7.53
2023-01-13T18:20:57.041Z,7.59
2023-01-13T18:23:26.030Z,7.52
2023-01-13T18:25:55.771Z,7.64
2023-01-13T18:28:22.332Z,7.73
2023-01-13T18:30:49.733Z,7.80
2023-01-13T18:33:19.004Z,7.73
2023-01-13T18:35:45.373Z,7.85
2023-01-13T18:38:11.709Z,7.86
2023-01-13T18:40:38.036Z,7.89
2023-01-13T18:43:04.629Z,7.90
2023-01-13T18:45:30.991Z,7.98
2023-01-13T18:47:57.752Z,7.97
2023-01-13T18:50:24.756Z,8.01
2023-01-13T18:52:51.128Z,8.02
2023-01-13T18:55:17.463Z,8.01
2023-01-13T18:57:43.801Z,8.04
2023-01-13T19:00:10.178Z,8.03
2023-01-13T19:02:36.582Z,7.95
2023-01-13T19:05:02.998Z,7.64
2023-01-13T19:07:29.391Z,7.62
2023-01-13T19:09:55.921Z,7.71
2023-01-13T19:12:22.755Z,7.65
2023-01-13T19:14:49.285Z,7.66
2023-01-13T19:17:15.665Z,7.63
2023-01-13T19:19:42.065Z,7.63
2023-01-13T19:22:08.877Z,7.63
2023-01-13T19:24:35.221Z,7.69
2023-01-13T19:27:04.620Z,7.77
2023-01-13T19:29:33.874Z,7.84
2023-01-13T19:32:00.439Z,7.82
2023-01-13T19:34:26.908Z,7.67
2023-01-13T19:36:53.251Z,7.71
2023-01-13T19:39:19.742Z,7.73
2023-01-13T19:41:46.734Z,7.62
2023-01-13T19:44:15.981Z,7.61
2023-01-13T19:46:42.376Z,7.63
2023-01-13T19:49:08.765Z,7.68
2023-01-13T19:51:35.145Z,7.70
2023-01-13T19:54:01.553Z,7.73
2023-01-13T19:56:27.960Z,7.65
2023-01-13T19:58:54.449Z,7.53
2023-01-13T20:01:20.915Z,7.63
2023-01-13T20:03:47.653Z,7.52
2023-01-13T20:06:14.056Z,7.56
2023-01-13T20:08:40.435Z,7.61
2023-01-13T20:11:06.782Z,7.69
2023-01-13T20:13:33.558Z,7.65
2023-01-13T20:16:04.952Z,7.62
2023-01-13T20:18:31.581Z,7.51
2023-01-13T20:20:57.971Z,7.46
2023-01-13T20:23:24.563Z,7.47
2023-01-13T20:25:58.048Z,7.39
2023-01-13T20:28:24.960Z,7.43
2023-01-13T20:30:51.512Z,7.43
2023-01-13T20:33:17.848Z,7.45
2023-01-13T20:35:44.201Z,7.44
2023-01-13T20:38:10.532Z,7.46
2023-01-13T20:40:36.979Z,7.47
2023-01-13T20:43:03.501Z,7.47
2023-01-13T20:45:34.183Z,7.52
2023-01-13T20:48:02.624Z,7.58
2023-01-13T20:50:28.960Z,7.49
2023-01-13T20:53:02.066Z,7.44
2023-01-13T20:55:28.931Z,7.30
2023-01-13T20:57:56.006Z,7.16
2023-01-13T21:00:22.361Z,7.20
2023-01-13T21:02:48.695Z,7.17
2023-01-13T21:05:15.033Z,7.23
2023-01-13T21:07:52.631Z,7.16
2023-01-13T21:10:19.041Z,7.27
2023-01-13T21:12:45.397Z,7.24
2023-01-13T21:15:11.744Z,7.22
2023-01-13T21:17:40.540Z,7.26
2023-01-13T21:20:07.132Z,7.37
2023-01-13T21:22:34.471Z,7.28
2023-01-13T21:25:04.250Z,7.28
2023-01-13T21:27:32.736Z,7.28
2023-01-13T21:30:01.163Z,7.22
2023-01-13T21:32:27.981Z,7.21
2023-01-13T21:34:56.728Z,7.23
2023-01-13T21:37:24.407Z,7.22
2023-01-13T21:39:50.956Z,7.20
2023-01-13T21:42:17.314Z,7.17
2023-01-13T21:44:44.707Z,7.16
2023-01-13T21:47:11.085Z,7.31
2023-01-13T21:49:37.528Z,7.36
2023-01-13T21:52:03.879Z,7.33
2023-01-13T21:54:30.222Z,7.30
2023-01-13T21:56:58.015Z,7.33
2023-01-13T21:59:24.344Z,7.31
2023-01-13T22:02:02.020Z,7.27
2023-01-13T22:04:37.241Z,7.22
2023-01-13T22:07:03.609Z,7.25
2023-01-13T22:09:29.992Z,7.26
2023-01-13T22:11:56.379Z,7.30
2023-01-13T22:14:22.767Z,7.20
2023-01-13T22:16:56.492Z,7.25
2023-01-13T22:19:22.833Z,7.27
2023-01-13T22:21:49.170Z,7.25
2023-01-13T22:24:18.094Z,7.28
2023-01-13T22:26:44.428Z,7.28
2023-01-13T22:29:10.764Z,7.27
2023-01-13T22:31:38.140Z,7.31
2023-01-13T22:34:12.406Z,7.35
2023-01-13T22:36:38.794Z,7.33
2023-01-13T22:39:05.163Z,7.29
2023-01-13T22:41:32.046Z,7.33
2023-01-13T22:43:58.648Z,7.23
2023-01-13T22:46:24.986Z,7.18
2023-01-13T22:48:51.330Z,7.14
2023-01-13T22:51:17.697Z,7.10
2023-01-13T22:53:44.037Z,7.06
2023-01-13T22:56:10.641Z,7.01
2023-01-13T22:58:36.985Z,7.05
2023-01-13T23:01:03.433Z,7.01
2023-01-13T23:03:29.848Z,6.97
2023-01-13T23:05:56.302Z,6.94
2023-01-13T23:08:22.682Z,6.98
2023-01-13T23:10:49.061Z,7.01
2023-01-13T23:13:15.441Z,7.04
2023-01-13T23:15:41.861Z,7.04
2023-01-13T23:18:08.333Z,7.01
2023-01-13T23:20:37.057Z,7.03
2023-01-13T23:23:03.415Z,6.95
2023-01-13T23:25:29.809Z,7.01
2023-01-13T23:27:56.235Z,6.87
2023-01-13T23:30:22.587Z,6.93
2023-01-13T23:32:49.161Z,6.99
2023-01-13T23:35:16.087Z,7.04
2023-01-13T23:37:42.471Z,6.99
2023-01-13T23:40:09.151Z,6.95
2023-01-13T23:42:35.539Z,7.00
2023-01-13T23:45:01.924Z,6.98
2023-01-13T23:47:30.589Z,7.00
2023-01-13T23:49:56.928Z,7.03
2023-01-13T23:52:24.274Z,6.99
2023-01-13T23:54:50.643Z,6.95
2023-01-13T23:57:17.269Z,6.93
2023-01-13T23:59:44.683Z,6.86
